Time;durP1;ratioP1;P1;durP2;ratioP2;P2;SDS_P1;SDS_P2;PMS_P1;PMS_P2;Temp;Humidity;BMP_temperature;BMP_pressure;BME280_temperature;BME280_humidity;BME280_pressure;Samples;Min_cycle;Max_cycle;Signal;HPM_P1;HPM_P2
2023/01/05 00:02:22;;;;;;;16.00;2.25;;;11.60;99.90;;;;;;5111272;28;20028;-77
2023/01/05 00:04:48;;;;;;;21.50;3.20;;;11.60;99.90;;;;;;5111024;28;20046;-78
2023/01/05 00:07:14;;;;;;;21.65;2.33;;;11.70;99.90;;;;;;5111067;28;20032;-78
2023/01/05 00:09:39;;;;;;;18.10;3.20;;;11.60;99.90;;;;;;5110077;28;20073;-76
2023/01/05 00:23:05;;;;;;;21.33;3.20;;;11.60;99.90;;;;;;5111230;28;20116;-77
2023/01/05 00:25:35;;;;;;;16.88;3.00;;;11.60;99.90;;;;;;5110800;28;20476;-76
2023/01/05 00:28:01;;;;;;;27.60;3.70;;;11.60;99.90;;;;;;5109962;28;20055;-78
2023/01/05 00:30:29;;;;;;;21.02;3.45;;;11.60;99.90;;;;;;5110994;28;20424;-77
2023/01/05 00:32:55;;;;;;;;;;;11.60;99.90;;;;;;5110824;28;20024;-76
2023/01/05 00:35:22;;;;;;;20.42;3.28;;;11.60;99.90;;;;;;5111040;28;20256;-76
2023/01/05 00:37:48;;;;;;;16.42;3.10;;;11.60;99.90;;;;;;5110848;28;20058;-78
2023/01/05 00:40:19;;;;;;;16.08;3.05;;;11.60;99.90;;;;;;5110877;28;20039;-78
2023/01/05 00:42:46;;;;;;;31.02;3.45;;;11.60;99.90;;;;;;5110726;28;20055;-77
2023/01/05 00:45:13;;;;;;;24.95;4.07;;;11.60;99.90;;;;;;5110978;28;20020;-77
2023/01/05 00:47:40;;;;;;;16.42;2.50;;;11.50;99.90;;;;;;5110769;28;20028;-77
2023/01/05 00:50:07;;;;;;;20.83;2.90;;;11.50;99.90;;;;;;5110749;28;20032;-77
2023/01/05 00:52:32;;;;;;;16.38;2.92;;;11.50;99.90;;;;;;5111018;28;20028;-77
2023/01/05 00:54:58;;;;;;;17.17;2.88;;;11.50;99.90;;;;;;5114812;27;20134;-76
2023/01/05 00:57:23;;;;;;;21.38;2.72;;;11.50;99.90;;;;;;5114563;28;20020;-80
2023/01/05 00:59:49;;;;;;;21.20;2.70;;;11.40;99.90;;;;;;5115033;28;20055;-77
2023/01/05 01:02:15;;;;;;;17.90;2.53;;;11.40;99.90;;;;;;5114719;27;20106;-77
2023/01/05 01:04:41;;;;;;;27.02;3.08;;;11.50;99.90;;;;;;5113292;28;20461;-78
2023/01/05 01:07:06;;;;;;;23.48;3.42;;;11.50;99.90;;;;;;5113473;28;20063;-77
2023/01/05 01:09:33;;;;;;;15.27;2.92;;;11.50;99.90;;;;;;5114533;28;20027;-77
2023/01/05 01:11:59;;;;;;;46.45;16.15;;;11.50;99.90;;;;;;5113863;28;20603;-77
2023/01/05 01:14:25;;;;;;;21.42;5.65;;;11.50;99.90;;;;;;5114494;28;20373;-77
2023/01/05 01:16:51;;;;;;;20.98;3.10;;;11.60;99.90;;;;;;5114365;28;20381;-78
2023/01/05 01:19:19;;;;;;;27.13;3.50;;;11.50;99.90;;;;;;5113180;28;20027;-76
2023/01/05 01:21:47;;;;;;;16.13;2.20;;;11.50;99.90;;;;;;5113075;28;20520;-77
2023/01/05 01:24:21;;;;;;;18.52;2.65;;;11.60;99.90;;;;;;5114497;28;20103;-79
2023/01/05 01:26:47;;;;;;;18.42;2.65;;;11.60;99.90;;;;;;5114142;28;20040;-77
2023/01/05 01:29:16;;;;;;;23.08;2.83;;;11.50;99.90;;;;;;5114400;28;20353;-78
2023/01/05 01:31:42;;;;;;;23.58;2.85;;;11.50;99.90;;;;;;5114031;28;20028;-79
2023/01/05 01:34:08;;;;;;;18.80;3.25;;;11.40;99.90;;;;;;5113900;28;20128;-77
2023/01/05 01:36:33;;;;;;;26.02;3.53;;;11.40;99.90;;;;;;5113938;28;20433;-76
2023/01/05 01:38:59;;;;;;;24.27;3.65;;;11.40;99.90;;;;;;5113289;28;20045;-78
2023/01/05 01:41:25;;;;;;;16.25;2.58;;;11.50;99.90;;;;;;5112602;28;20035;-75
2023/01/05 01:43:53;;;;;;;20.65;3.10;;;11.50;99.90;;;;;;5113556;28;20027;-76
2023/01/05 01:46:21;;;;;;;14.07;2.83;;;11.50;99.90;;;;;;5113746;28;20035;-76
2023/01/05 01:49:00;;;;;;;21.05;3.15;;;11.50;99.90;;;;;;5113604;28;20074;-79
2023/01/05 01:51:43;;;;;;;21.85;3.30;;;11.60;99.90;;;;;;5113635;28;20019;-78
2023/01/05 01:54:11;;;;;;;17.23;3.00;;;11.50;99.90;;;;;;5114399;28;20032;-78
2023/01/05 01:56:54;;;;;;;22.38;3.17;;;11.50;99.90;;;;;;5113508;28;20093;-78
2023/01/05 01:59:22;;;;;;;18.20;3.08;;;11.50;99.90;;;;;;5113382;28;20042;-77
2023/01/05 02:01:50;;;;;;;;;;;11.50;99.90;;;;;;5114149;28;20032;-77
2023/01/05 02:04:15;;;;;;;19.77;3.08;;;11.50;99.90;;;;;;5111760;28;20353;-77
2023/01/05 02:06:41;;;;;;;21.95;3.00;;;11.40;99.90;;;;;;5112182;28;20065;-79
2023/01/05 02:09:07;;;;;;;22.42;3.50;;;11.50;99.90;;;;;;5113860;28;20110;-78
2023/01/05 02:11:39;;;;;;;21.38;3.05;;;11.40;99.90;;;;;;5112192;28;20052;-78
2023/01/05 02:14:04;;;;;;;22.05;3.20;;;11.40;99.90;;;;;;5111865;28;20028;-77
2023/01/05 02:16:47;;;;;;;11.30;2.65;;;11.40;99.90;;;;;;5112574;28;20036;-77
2023/01/05 02:19:22;;;;;;;15.55;2.80;;;11.30;99.90;;;;;;5113068;28;20472;-77
2023/01/05 02:22:21;;;;;;;23.70;3.80;;;11.20;99.90;;;;;;5112103;28;20453;-77
2023/01/05 02:25:01;;;;;;;23.35;3.53;;;11.20;99.90;;;;;;5111642;28;20056;-78
2023/01/05 02:27:50;;;;;;;24.73;2.97;;;11.20;99.90;;;;;;5112591;28;20370;-79
2023/01/05 02:30:43;;;;;;;23.98;3.67;;;11.10;99.90;;;;;;5112971;28;20034;-77
2023/01/05 02:33:53;;;;;;;19.58;3.33;;;11.10;99.90;;;;;;5112818;28;20038;-78
2023/01/05 02:36:41;;;;;;;21.35;3.28;;;11.20;99.90;;;;;;5099984;28;20046;-78
2023/01/05 02:39:20;;;;;;;20.75;2.88;;;11.00;99.90;;;;;;5093315;28;20020;-79
2023/01/05 02:41:57;;;;;;;25.33;2.85;;;11.00;99.90;;;;;;5092558;28;20024;-79
2023/01/05 02:44:27;;;;;;;21.17;3.53;;;11.00;99.90;;;;;;5091225;28;20028;-77
2023/01/05 02:47:03;;;;;;;22.08;3.58;;;11.00;99.90;;;;;;5092381;28;20031;-78
2023/01/05 02:49:33;;;;;;;20.25;3.25;;;10.90;99.90;;;;;;5092255;28;20206;-78
2023/01/05 02:52:00;;;;;;;23.48;3.55;;;10.90;99.90;;;;;;5092333;28;20473;-79
2023/01/05 02:54:46;;;;;;;19.93;2.73;;;10.90;99.90;;;;;;5091095;28;20406;-78
2023/01/05 02:57:18;;;;;;;13.65;2.30;;;11.00;99.90;;;;;;5092559;28;20280;-78
2023/01/05 02:59:50;;;;;;;14.68;2.67;;;11.00;99.90;;;;;;5092232;28;20028;-78
2023/01/05 03:02:23;;;;;;;15.85;2.25;;;11.10;99.90;;;;;;5091835;28;20084;-79
2023/01/05 03:05:03;;;;;;;19.48;2.92;;;10.90;99.90;;;;;;5090949;28;20472;-78
2023/01/05 03:07:32;;;;;;;18.35;2.58;;;11.00;99.90;;;;;;5091994;28;20370;-77
2023/01/05 03:13:39;;;;;;;14.60;2.67;;;11.00;99.90;;;;;;5090566;28;20115;-79
2023/01/05 03:15:32;;;;;;;18.30;2.90;;;10.90;99.90;;;;;;5091620;28;20047;-78
2023/01/05 03:18:25;;;;;;;16.85;2.38;;;10.90;99.90;;;;;;5091215;28;20043;-77
2023/01/05 03:20:53;;;;;;;11.40;2.17;;;10.90;99.90;;;;;;5088496;28;20169;-78
2023/01/05 03:37:47;;;;;;;9.77;2.08;;;10.80;99.90;;;;;;5091064;28;20093;-77
2023/01/05 03:40:29;;;;;;;19.08;2.70;;;10.90;99.90;;;;;;5090208;28;20532;-77
2023/01/05 03:42:56;;;;;;;23.10;2.63;;;10.90;99.90;;;;;;5091109;28;20036;-77
2023/01/05 03:45:25;;;;;;;17.70;2.88;;;11.00;99.90;;;;;;5090053;28;20028;-77
2023/01/05 03:47:50;;;;;;;16.88;2.60;;;11.00;99.90;;;;;;5092219;28;20020;-77
2023/01/05 03:50:16;;;;;;;16.88;3.67;;;11.00;99.90;;;;;;5090926;28;20035;-79
2023/01/05 03:52:42;;;;;;;40.45;13.32;;;11.00;99.90;;;;;;5091008;28;20036;-78
2023/01/05 03:55:08;;;;;;;25.60;3.78;;;11.00;99.90;;;;;;5091103;28;20024;-76
2023/01/05 03:57:34;;;;;;;25.27;3.90;;;10.90;99.90;;;;;;5090769;28;20020;-79
2023/01/05 04:00:00;;;;;;;17.40;2.72;;;10.90;99.90;;;;;;5091266;28;20028;-77
2023/01/05 04:02:26;;;;;;;21.70;3.03;;;10.90;99.90;;;;;;5089685;28;20107;-79
2023/01/05 04:04:51;;;;;;;26.38;3.40;;;10.90;99.90;;;;;;5090777;28;20044;-79
2023/01/05 04:07:17;;;;;;;17.65;2.67;;;10.80;99.90;;;;;;5090774;28;20089;-78
2023/01/05 04:09:42;;;;;;;22.35;3.80;;;11.00;99.90;;;;;;5089559;28;20043;-76
2023/01/05 04:12:08;;;;;;;24.52;3.83;;;10.90;99.90;;;;;;5091489;28;20039;-78
2023/01/05 04:14:34;;;;;;;19.98;3.30;;;10.80;99.90;;;;;;5090607;28;20375;-78
2023/01/05 04:16:59;;;;;;;17.52;3.63;;;11.00;99.90;;;;;;5089797;28;20147;-77
2023/01/05 04:19:25;;;;;;;25.13;3.53;;;10.90;99.90;;;;;;5090619;28;20028;-78
2023/01/05 04:21:51;;;;;;;20.45;3.35;;;10.90;99.90;;;;;;5090718;28;20036;-78
2023/01/05 04:24:16;;;;;;;23.85;3.97;;;10.90;99.90;;;;;;5091331;28;20130;-77
2023/01/05 04:26:42;;;;;;;27.70;4.32;;;10.90;99.90;;;;;;5090539;28;20028;-78
2023/01/05 04:29:11;;;;;;;26.33;4.40;;;10.90;99.90;;;;;;5095120;28;20020;-78
2023/01/05 04:31:36;;;;;;;27.98;3.38;;;10.80;99.90;;;;;;5095570;28;20036;-77
2023/01/05 04:34:02;;;;;;;22.55;3.28;;;10.80;99.90;;;;;;5096063;28;20058;-80
2023/01/05 04:36:28;;;;;;;22.77;2.53;;;10.90;99.90;;;;;;5097190;28;20563;-78
2023/01/05 04:38:53;;;;;;;19.60;2.92;;;10.90;99.90;;;;;;5097908;28;20038;-78
2023/01/05 04:41:20;;;;;;;18.33;2.58;;;10.80;99.90;;;;;;5097145;28;20031;-77
2023/01/05 04:43:45;;;;;;;26.42;2.55;;;10.80;99.90;;;;;;5097042;28;20032;-79
2023/01/05 04:46:11;;;;;;;23.42;3.47;;;10.80;99.90;;;;;;5097262;28;20062;-77
2023/01/05 04:48:37;;;;;;;22.48;3.60;;;10.80;99.90;;;;;;5097520;28;20095;-77
2023/01/05 04:51:03;;;;;;;26.63;3.50;;;10.80;99.90;;;;;;5097774;28;20023;-80
2023/01/05 04:53:28;;;;;;;13.68;2.42;;;10.70;99.90;;;;;;5097795;28;20032;-77
2023/01/05 04:55:54;;;;;;;26.02;3.45;;;10.70;99.90;;;;;;5097277;28;20408;-76
2023/01/05 04:58:19;;;;;;;21.83;3.13;;;10.80;99.90;;;;;;5097083;28;20040;-79
2023/01/05 05:00:46;;;;;;;13.75;2.30;;;10.70;99.90;;;;;;5098236;28;20028;-77
2023/01/05 05:03:12;;;;;;;18.50;3.22;;;10.70;99.90;;;;;;5097750;28;20077;-79
2023/01/05 05:05:37;;;;;;;24.00;4.30;;;10.70;99.90;;;;;;5097147;28;20036;-78
2023/01/05 05:08:03;;;;;;;18.77;3.00;;;10.80;99.90;;;;;;5096850;28;20107;-77
2023/01/05 05:10:29;;;;;;;19.85;3.03;;;10.60;99.90;;;;;;5096731;28;20043;-79
2023/01/05 05:12:55;;;;;;;20.23;3.08;;;10.70;99.90;;;;;;5096900;28;20380;-79
2023/01/05 05:15:20;;;;;;;20.77;3.63;;;10.70;99.90;;;;;;5095320;28;20044;-79
2023/01/05 05:17:47;;;;;;;19.45;3.28;;;10.60;99.90;;;;;;5097304;28;20111;-78
2023/01/05 05:20:15;;;;;;;15.07;3.03;;;10.60;99.90;;;;;;5096949;28;20465;-78
2023/01/05 05:22:41;;;;;;;15.27;2.40;;;10.60;99.90;;;;;;5095952;28;20638;-78
2023/01/05 05:25:07;;;;;;;17.33;3.00;;;10.60;99.90;;;;;;5096954;28;20035;-79
2023/01/05 05:27:33;;;;;;;20.00;3.00;;;10.70;99.90;;;;;;5096929;28;20354;-78
2023/01/05 05:29:58;;;;;;;10.30;2.10;;;10.70;99.90;;;;;;5096587;28;20045;-79
2023/01/05 05:32:24;;;;;;;18.02;3.05;;;10.60;99.90;;;;;;5097175;28;20029;-78
2023/01/05 05:34:50;;;;;;;16.08;2.90;;;10.60;99.90;;;;;;5097063;28;20472;-77
2023/01/05 05:37:15;;;;;;;24.73;3.63;;;10.60;99.90;;;;;;5096823;28;20075;-78
2023/01/05 05:39:41;;;;;;;16.52;2.55;;;10.70;99.90;;;;;;5094708;28;20040;-78
2023/01/05 05:42:07;;;;;;;18.50;2.95;;;10.70;99.90;;;;;;5093375;28;20032;-78
2023/01/05 05:44:32;;;;;;;21.23;3.13;;;10.80;99.90;;;;;;5093708;28;20032;-79
2023/01/05 05:46:58;;;;;;;22.85;3.00;;;10.70;99.90;;;;;;5093357;28;20124;-77
2023/01/05 05:49:24;;;;;;;18.00;2.83;;;10.70;99.90;;;;;;5093837;28;20474;-78
2023/01/05 05:51:49;;;;;;;16.13;3.75;;;10.70;99.90;;;;;;5092598;28;20066;-78
2023/01/05 05:54:15;;;;;;;25.88;3.30;;;10.80;99.90;;;;;;5094170;28;20047;-77
2023/01/05 05:56:41;;;;;;;20.63;3.75;;;10.70;99.90;;;;;;5092848;28;20111;-78
2023/01/05 05:59:07;;;;;;;25.75;3.38;;;10.60;99.90;;;;;;5093759;28;20452;-79
2023/01/05 06:01:32;;;;;;;17.25;3.42;;;10.70;99.90;;;;;;5093359;28;20504;-76
2023/01/05 06:03:58;;;;;;;21.23;2.85;;;10.70;99.90;;;;;;5093165;28;20039;-76
2023/01/05 06:06:23;;;;;;;22.45;3.83;;;10.70;99.90;;;;;;5091853;28;20027;-78
2023/01/05 06:08:49;;;;;;;24.20;3.58;;;10.70;99.90;;;;;;5093618;28;20028;-78
2023/01/05 06:11:15;;;;;;;23.27;5.30;;;10.60;99.90;;;;;;5093296;28;20032;-78
2023/01/05 06:13:41;;;;;;;15.48;3.08;;;10.70;99.90;;;;;;5093085;28;20071;-78
2023/01/05 06:16:06;;;;;;;18.38;3.25;;;10.60;99.90;;;;;;5092699;28;20040;-78
2023/01/05 06:18:32;;;;;;;22.73;4.00;;;10.60;99.90;;;;;;5091594;28;20020;-76
2023/01/05 06:20:58;;;;;;;30.05;3.00;;;10.50;99.90;;;;;;5094583;28;20075;-77
2023/01/05 06:23:24;;;;;;;20.73;4.30;;;10.50;99.90;;;;;;5091522;28;20481;-78
2023/01/05 06:25:49;;;;;;;22.25;3.08;;;10.60;99.90;;;;;;5093070;28;20040;-79
2023/01/05 06:28:15;;;;;;;23.35;3.30;;;10.60;99.90;;;;;;5091629;28;20429;-77
2023/01/05 06:30:40;;;;;;;18.48;3.30;;;10.50;99.90;;;;;;5092106;28;20035;-77
2023/01/05 06:33:06;;;;;;;18.38;3.78;;;10.50;99.90;;;;;;5092660;28;20156;-78
2023/01/05 06:35:32;;;;;;;17.75;3.55;;;10.50;99.90;;;;;;5092256;28;20024;-78
2023/01/05 06:37:57;;;;;;;18.60;3.17;;;10.50;99.90;;;;;;5092476;28;20050;-78
2023/01/05 06:40:23;;;;;;;16.90;3.35;;;10.50;99.90;;;;;;5092140;28;20035;-79
2023/01/05 06:42:48;;;;;;;15.40;3.08;;;10.50;99.90;;;;;;5091000;28;20032;-78
2023/01/05 06:45:15;;;;;;;20.77;3.53;;;10.60;99.90;;;;;;5092385;28;20023;-78
2023/01/05 06:47:42;;;;;;;23.10;4.35;;;10.60;99.90;;;;;;5091028;28;20490;-77
2023/01/05 06:50:08;;;;;;;27.08;4.38;;;10.50;99.90;;;;;;5092094;28;20109;-76
2023/01/05 06:52:35;;;;;;;15.48;3.30;;;10.50;99.90;;;;;;5090847;28;20081;-77
2023/01/05 06:55:07;;;;;;;19.40;3.17;;;10.50;99.90;;;;;;5090676;28;20366;-79
2023/01/05 06:57:35;;;;;;;17.70;3.40;;;10.50;99.90;;;;;;5090968;28;20051;-76
2023/01/05 07:00:02;;;;;;;19.30;4.13;;;10.50;99.90;;;;;;5091649;28;20388;-78
2023/01/05 07:02:28;;;;;;;26.67;4.03;;;10.40;99.90;;;;;;5091947;28;20032;-77
2023/01/05 07:04:54;;;;;;;20.27;2.92;;;10.50;99.90;;;;;;5091985;28;20132;-78
2023/01/05 07:07:19;;;;;;;19.45;3.42;;;10.50;99.90;;;;;;5091699;28;20028;-78
2023/01/05 07:09:48;;;;;;;23.90;2.78;;;10.60;99.90;;;;;;5091811;28;20028;-78
2023/01/05 07:12:14;;;;;;;18.33;2.50;;;10.60;99.90;;;;;;5092380;28;20338;-78
2023/01/05 07:14:39;;;;;;;12.57;2.75;;;10.60;99.90;;;;;;5091629;28;20178;-78
2023/01/05 07:17:05;;;;;;;24.00;3.47;;;10.60;99.90;;;;;;5091592;28;20531;-77
2023/01/05 07:19:31;;;;;;;13.40;2.95;;;10.60;99.90;;;;;;5091604;28;20481;-78
2023/01/05 07:21:57;;;;;;;23.15;3.17;;;10.70;99.90;;;;;;5090864;28;20105;-77
2023/01/05 07:24:22;;;;;;;19.10;3.33;;;10.50;99.90;;;;;;5091671;28;20412;-77
2023/01/05 07:26:49;;;;;;;13.02;2.42;;;10.60;99.90;;;;;;5091931;28;20020;-77
2023/01/05 07:29:15;;;;;;;19.80;3.45;;;10.70;99.90;;;;;;5091626;28;20024;-79
2023/01/05 07:31:40;;;;;;;19.15;3.05;;;10.60;99.90;;;;;;5091554;28;20392;-77
2023/01/05 07:34:07;;;;;;;14.20;2.78;;;10.60;99.90;;;;;;5091104;28;20470;-78
2023/01/05 07:36:33;;;;;;;28.27;3.22;;;10.70;99.90;;;;;;5091348;28;20016;-78
2023/01/05 07:38:59;;;;;;;24.38;3.45;;;10.60;99.90;;;;;;5092074;28;20020;-77
2023/01/05 07:41:24;;;;;;;16.10;2.95;;;10.70;99.90;;;;;;5091626;28;20466;-78
2023/01/05 07:43:50;;;;;;;20.38;3.50;;;10.60;99.90;;;;;;5092248;28;20032;-77
2023/01/05 07:46:16;;;;;;;26.73;3.97;;;10.60;99.90;;;;;;5093101;28;20077;-77
2023/01/05 07:48:42;;;;;;;21.38;4.07;;;10.60;99.90;;;;;;5093386;28;20039;-78
2023/01/05 07:51:09;;;;;;;14.55;3.17;;;10.60;99.90;;;;;;5093675;28;20052;-77
2023/01/05 07:53:37;;;;;;;15.45;2.95;;;10.50;99.90;;;;;;5094714;28;20039;-77
2023/01/05 07:56:04;;;;;;;24.70;3.55;;;10.50;99.90;;;;;;5094973;28;20473;-78
2023/01/05 07:58:31;;;;;;;21.67;2.65;;;10.50;99.90;;;;;;5096134;28;20092;-76
2023/01/05 08:00:56;;;;;;;14.68;2.60;;;10.50;99.90;;;;;;5095910;28;20116;-78
2023/01/05 08:03:22;;;;;;;17.83;2.60;;;10.50;99.90;;;;;;5094694;28;20048;-77
2023/01/05 08:05:48;;;;;;;14.38;3.70;;;10.60;99.90;;;;;;5094010;28;20023;-78
2023/01/05 08:08:14;;;;;;;18.90;2.97;;;10.60;99.90;;;;;;5092331;28;20032;-78
2023/01/05 08:10:41;;;;;;;16.63;2.72;;;10.60;99.90;;;;;;5091603;28;20036;-77
2023/01/05 08:15:54;;;;;;;23.95;3.42;;;10.60;99.90;;;;;;5091769;28;20057;-78
2023/01/05 08:18:21;;;;;;;15.45;2.97;;;10.60;99.90;;;;;;5092411;28;20024;-77
2023/01/05 08:20:55;;;;;;;17.02;3.25;;;10.60;99.90;;;;;;5090884;28;20359;-77
2023/01/05 08:23:22;;;;;;;20.05;2.97;;;10.60;99.90;;;;;;5091641;28;20107;-76
2023/01/05 08:25:47;;;;;;;21.17;3.35;;;10.60;99.90;;;;;;5089997;28;20184;-78
2023/01/05 08:28:13;;;;;;;15.40;2.80;;;10.60;99.90;;;;;;5090502;28;20042;-79
2023/01/05 08:30:39;;;;;;;13.63;2.65;;;10.70;99.90;;;;;;5090505;28;20031;-79
2023/01/05 08:33:05;;;;;;;15.65;2.70;;;10.70;99.90;;;;;;5090088;28;20507;-77
2023/01/05 08:35:31;;;;;;;19.20;3.25;;;10.70;99.90;;;;;;5090659;28;20134;-76
2023/01/05 08:37:56;;;;;;;32.00;3.75;;;10.60;99.90;;;;;;5091072;28;20025;-78
2023/01/05 08:40:24;;;;;;;19.05;4.28;;;10.70;99.90;;;;;;5090448;28;20039;-75
2023/01/05 08:42:50;;;;;;;16.75;2.92;;;10.70;99.90;;;;;;5089350;28;20489;-77
2023/01/05 08:45:16;;;;;;;15.55;2.72;;;10.80;99.90;;;;;;5091578;28;20320;-77
2023/01/05 08:47:42;;;;;;;8.20;1.90;;;10.70;99.90;;;;;;5091250;28;20088;-77
2023/01/05 08:50:10;;;;;;;15.57;2.50;;;10.70;99.90;;;;;;5089847;28;20055;-77
2023/01/05 08:52:37;;;;;;;14.00;3.97;;;10.70;99.90;;;;;;5090469;28;20036;-77
2023/01/05 08:55:04;;;;;;;19.30;3.90;;;10.70;99.90;;;;;;5090706;28;20058;-78
2023/01/05 08:57:30;;;;;;;16.15;2.78;;;10.70;99.90;;;;;;5089287;28;20429;-76
2023/01/05 08:59:56;;;;;;;14.75;3.05;;;10.80;99.90;;;;;;5090956;28;20017;-76
2023/01/05 09:02:22;;;;;;;22.63;3.97;;;10.70;99.90;;;;;;5091016;28;20031;-77
2023/01/05 09:04:50;;;;;;;23.20;3.15;;;10.70;99.90;;;;;;5088899;28;20450;-76
2023/01/05 09:07:15;;;;;;;21.70;4.30;;;10.80;99.90;;;;;;5091060;28;20038;-76
2023/01/05 09:09:41;;;;;;;18.55;3.53;;;10.80;99.90;;;;;;5089203;28;20439;-77
2023/01/05 09:12:07;;;;;;;19.48;2.83;;;10.80;99.90;;;;;;5089670;28;20075;-77
2023/01/05 09:14:33;;;;;;;21.10;3.22;;;10.80;99.90;;;;;;5090841;28;20028;-77
2023/01/05 09:16:59;;;;;;;21.70;3.28;;;10.80;99.90;;;;;;5094052;28;20093;-76
2023/01/05 09:19:25;;;;;;;20.05;3.10;;;10.80;99.90;;;;;;5093847;28;20036;-78
2023/01/05 09:21:51;;;;;;;21.15;3.13;;;10.80;99.90;;;;;;5094164;28;20127;-76
2023/01/05 09:24:17;;;;;;;17.67;2.92;;;10.80;99.90;;;;;;5094068;28;20035;-78
2023/01/05 09:26:43;;;;;;;21.02;2.67;;;10.90;99.90;;;;;;5093794;28;20032;-78
2023/01/05 09:29:10;;;;;;;14.07;3.00;;;10.90;99.90;;;;;;5092540;28;20046;-77
2023/01/05 09:31:36;;;;;;;18.33;3.28;;;11.10;99.90;;;;;;5093922;28;20034;-77
2023/01/05 09:34:02;;;;;;;16.77;3.28;;;11.10;99.90;;;;;;5093878;28;20032;-76
2023/01/05 09:36:28;;;;;;;21.38;3.03;;;11.00;99.90;;;;;;5093939;28;20059;-76
2023/01/05 09:38:55;;;;;;;18.15;2.50;;;11.10;99.90;;;;;;5094110;28;20438;-77
2023/01/05 09:41:53;;;;;;;13.23;2.58;;;11.10;99.90;;;;;;5093727;28;20043;-78
2023/01/05 09:44:36;;;;;;;16.55;3.83;;;11.10;99.90;;;;;;5093353;28;20097;-78
2023/01/05 09:47:28;;;;;;;12.10;2.40;;;11.20;99.90;;;;;;5093752;28;20430;-77
2023/01/05 09:49:55;;;;;;;11.48;2.83;;;11.10;99.90;;;;;;5092332;28;20024;-77
2023/01/05 09:52:21;;;;;;;17.50;2.72;;;11.10;99.90;;;;;;5093885;28;20059;-77
2023/01/05 09:54:47;;;;;;;20.92;3.88;;;11.20;99.90;;;;;;5093217;28;20036;-78
2023/01/05 09:57:39;;;;;;;16.67;2.95;;;11.20;99.90;;;;;;5093996;28;20078;-78
2023/01/05 10:00:07;;;;;;;19.50;3.10;;;11.10;99.90;;;;;;5090742;28;20054;-76
2023/01/05 10:02:47;;;;;;;15.00;2.63;;;11.20;99.90;;;;;;5093994;28;20039;-76
2023/01/05 10:05:14;;;;;;;20.70;4.78;;;11.10;99.90;;;;;;5092798;28;20035;-76
2023/01/05 10:08:04;;;;;;;12.55;2.63;;;11.20;99.90;;;;;;5091947;28;20032;-76
2023/01/05 10:13:01;;;;;;;12.85;2.13;;;11.20;99.90;;;;;;5092026;28;20172;-76
2023/01/05 10:13:38;;;;;;;8.07;2.22;;;11.10;99.90;;;;;;5092790;28;20358;-77
2023/01/05 10:16:04;;;;;;;11.48;2.10;;;11.10;99.90;;;;;;5092718;28;20078;-76
2023/01/05 10:18:30;;;;;;;10.90;2.47;;;11.20;99.90;;;;;;5091833;28;20347;-77
2023/01/05 10:21:02;;;;;;;6.97;2.28;;;11.20;99.90;;;;;;5092014;28;20185;-76
2023/01/05 10:24:12;;;;;;;14.60;2.22;;;11.20;99.90;;;;;;5092669;28;20067;-76
2023/01/05 10:26:47;;;;;;;10.77;1.92;;;11.20;99.90;;;;;;5088896;28;20431;-77
2023/01/05 10:29:17;;;;;;;18.05;2.58;;;11.20;99.90;;;;;;5091563;28;20036;-77
2023/01/05 10:31:54;;;;;;;17.23;2.67;;;11.10;99.90;;;;;;5092485;28;20358;-78
2023/01/05 10:34:31;;;;;;;15.15;2.17;;;11.10;99.90;;;;;;5092880;28;20089;-76
2023/01/05 10:37:27;;;;;;;14.82;3.30;;;11.00;99.90;;;;;;5092750;28;20058;-78
2023/01/05 10:40:20;;;;;;;18.90;4.18;;;11.00;99.90;;;;;;5091018;28;20348;-77
2023/01/05 10:43:16;;;;;;;16.35;2.85;;;11.10;99.90;;;;;;5092731;28;20028;-77
2023/01/05 10:45:42;;;;;;;8.10;1.70;;;11.10;99.90;;;;;;5093789;28;20050;-76
2023/01/05 10:48:18;;;;;;;13.38;1.75;;;11.00;99.90;;;;;;5092848;28;20024;-77
2023/01/05 10:50:46;;;;;;;5.20;1.42;;;11.00;99.90;;;;;;5092929;28;20028;-77
2023/01/05 10:53:24;;;;;;;8.82;1.50;;;11.00;99.90;;;;;;5094669;28;20129;-77
2023/01/05 10:55:56;;;;;;;7.07;1.65;;;10.90;99.90;;;;;;5093253;28;20044;-77
2023/01/05 10:58:29;;;;;;;6.70;1.60;;;10.90;99.90;;;;;;5091740;28;20066;-77
2023/01/05 11:00:58;;;;;;;9.48;1.63;;;10.90;99.90;;;;;;5093184;28;20029;-78
2023/01/05 11:03:32;;;;;;;6.05;1.92;;;10.80;99.90;;;;;;5091257;28;20419;-77
2023/01/05 11:05:58;;;;;;;7.55;1.58;;;11.00;99.90;;;;;;5091195;28;20034;-75
2023/01/05 11:08:30;;;;;;;9.90;1.60;;;11.00;99.90;;;;;;5091832;28;20028;-77
2023/01/05 11:11:06;;;;;;;9.73;1.63;;;10.90;99.90;;;;;;5093181;28;20032;-77
2023/01/05 11:13:39;;;;;;;10.43;1.70;;;11.00;99.90;;;;;;5094080;28;20033;-77
2023/01/05 11:16:13;;;;;;;4.78;1.63;;;11.10;99.90;;;;;;5091866;28;20056;-77
2023/01/05 11:18:49;;;;;;;7.47;2.13;;;11.20;99.90;;;;;;5092976;28;20024;-77
2023/01/05 11:21:18;;;;;;;10.75;2.13;;;11.30;99.90;;;;;;5091834;28;20434;-77
2023/01/05 11:23:49;;;;;;;5.47;1.30;;;11.40;99.90;;;;;;5090349;28;20028;-77
2023/01/05 11:26:23;;;;;;;2.53;0.80;;;11.20;99.90;;;;;;5090739;28;20024;-77
2023/01/05 11:29:16;;;;;;;1.42;0.43;;;10.80;99.90;;;;;;5090657;28;20032;-75
2023/01/05 11:31:48;;;;;;;2.92;0.55;;;10.50;99.90;;;;;;5084768;28;20044;-76
2023/01/05 11:34:32;;;;;;;3.75;0.40;;;10.50;99.90;;;;;;5090507;28;20123;-77
2023/01/05 11:37:01;;;;;;;0.88;0.30;;;10.60;99.90;;;;;;5089829;28;20036;-77
2023/01/05 11:39:52;;;;;;;7.30;2.15;;;10.60;99.90;;;;;;5090248;28;20039;-77
2023/01/05 11:42:24;;;;;;;3.33;0.90;;;10.30;99.90;;;;;;5084237;28;20450;-76
2023/01/05 11:45:19;;;;;;;4.57;0.93;;;10.10;99.90;;;;;;5091396;28;20054;-78
2023/01/05 11:47:56;;;;;;;1.42;0.55;;;10.00;99.90;;;;;;5091249;28;20450;-77
2023/01/05 11:50:26;;;;;;;4.97;0.88;;;10.00;99.90;;;;;;5092344;28;20039;-77
2023/01/05 11:52:55;;;;;;;2.45;0.60;;;10.20;99.90;;;;;;5090136;28;20032;-77
2023/01/05 11:55:32;;;;;;;6.80;0.70;;;10.20;99.90;;;;;;5090810;28;20028;-76
2023/01/05 11:58:16;;;;;;;2.22;0.65;;;10.10;99.90;;;;;;5090044;28;20043;-76
2023/01/05 12:01:05;;;;;;;3.13;0.70;;;10.10;99.90;;;;;;5091013;28;20362;-77
2023/01/05 12:03:49;;;;;;;5.28;0.77;;;10.20;99.90;;;;;;5090865;28;20024;-78
2023/01/05 12:06:33;;;;;;;2.28;0.55;;;10.20;99.90;;;;;;5091616;28;20077;-76
2023/01/05 12:09:10;;;;;;;2.75;0.85;;;10.20;99.90;;;;;;5089629;28;20043;-77
2023/01/05 12:11:59;;;;;;;4.05;0.57;;;10.20;99.90;;;;;;5090684;28;20047;-75
2023/01/05 12:14:55;;;;;;;5.38;0.80;;;10.10;99.90;;;;;;5090520;28;20193;-76
2023/01/05 12:17:37;;;;;;;2.72;0.40;;;10.10;99.90;;;;;;5090119;28;20068;-77
2023/01/05 12:20:33;;;;;;;3.50;0.60;;;10.20;99.90;;;;;;5090700;28;20189;-78
2023/01/05 12:23:31;;;;;;;1.55;0.45;;;10.10;99.90;;;;;;5089588;28;20024;-77
2023/01/05 12:26:03;;;;;;;;;;;10.10;99.90;;;;;;5090140;28;20066;-77
2023/01/05 12:28:50;;;;;;;0.98;0.63;;;10.10;99.90;;;;;;5090618;28;19908;-77
2023/01/05 12:31:41;;;;;;;1.30;0.65;;;9.90;99.90;;;;;;5089591;28;20042;-78
2023/01/05 12:34:37;;;;;;;3.45;0.60;;;9.90;99.90;;;;;;5089408;28;20040;-79
2023/01/05 12:37:38;;;;;;;4.15;0.82;;;10.00;99.90;;;;;;5090621;28;20042;-76
2023/01/05 12:40:07;;;;;;;3.55;1.20;;;10.10;99.90;;;;;;5089361;28;20035;-78
2023/01/05 12:42:51;;;;;;;1.90;0.80;;;10.20;99.90;;;;;;5090762;28;20357;-77
2023/01/05 12:45:37;;;;;;;2.10;0.63;;;10.10;99.90;;;;;;5091204;28;20138;-77
2023/01/05 12:48:24;;;;;;;2.05;0.98;;;10.20;99.90;;;;;;5090669;28;20060;-77
2023/01/05 12:51:10;;;;;;;6.88;1.23;;;10.20;99.90;;;;;;5093508;28;20383;-77
2023/01/05 12:53:42;;;;;;;4.75;2.10;;;10.20;99.90;;;;;;5082903;28;20105;-78
2023/01/05 12:56:26;;;;;;;4.57;1.92;;;10.20;99.90;;;;;;5095060;28;20040;-78
2023/01/05 12:59:17;;;;;;;4.97;1.95;;;10.30;99.90;;;;;;5094401;28;20050;-78
2023/01/05 13:02:21;;;;;;;3.67;1.00;;;10.40;99.90;;;;;;5093380;28;20025;-78
2023/01/05 13:05:02;;;;;;;8.32;3.28;;;10.40;99.90;;;;;;5093616;28;20032;-77
2023/01/05 13:07:40;;;;;;;5.65;2.05;;;10.40;99.90;;;;;;5094013;28;20042;-78
2023/01/05 13:10:34;;;;;;;2.97;1.00;;;10.50;99.90;;;;;;5094212;28;20394;-78
2023/01/05 13:13:04;;;;;;;6.60;1.10;;;10.50;99.90;;;;;;5082758;28;20032;-77
2023/01/05 13:15:35;;;;;;;5.40;1.08;;;10.50;99.90;;;;;;5093828;28;20052;-77
2023/01/05 13:18:04;;;;;;;2.67;1.20;;;10.50;99.90;;;;;;5094644;28;20063;-78
2023/01/05 13:20:41;;;;;;;7.03;1.15;;;10.50;99.90;;;;;;5092697;28;20115;-77
2023/01/05 13:23:23;;;;;;;7.20;1.30;;;10.50;99.90;;;;;;5093936;28;20487;-78
2023/01/05 13:26:03;;;;;;;7.22;1.33;;;10.70;99.90;;;;;;5093725;28;20110;-77
2023/01/05 13:28:29;;;;;;;7.72;1.58;;;10.60;99.90;;;;;;5093766;28;20497;-78
2023/01/05 13:31:12;;;;;;;4.35;1.23;;;10.50;99.90;;;;;;5094110;28;20028;-78
2023/01/05 13:33:38;;;;;;;5.72;0.93;;;10.50;99.90;;;;;;5093828;28;20035;-78